createdAt,value
2019-05-17T00:01:51.857Z,14.63
2019-05-17T00:04:22.925Z,15.83
2019-05-17T00:06:53.695Z,15.07
2019-05-17T00:09:26.726Z,15.53
2019-05-17T00:11:57.884Z,14.90
2019-05-17T00:14:28.754Z,16.77
2019-05-17T00:16:59.741Z,15.80
2019-05-17T00:19:30.591Z,16.80
2019-05-17T00:22:01.445Z,16.30
2019-05-17T00:24:32.511Z,17.30
2019-05-17T00:27:03.423Z,15.83
2019-05-17T00:29:34.319Z,20.37
2019-05-17T00:32:06.465Z,16.40
2019-05-17T00:34:38.410Z,18.60
2019-05-17T00:37:09.695Z,18.67
2019-05-17T00:39:40.534Z,18.30
2019-05-17T00:42:12.429Z,17.87
2019-05-17T00:44:43.263Z,18.67
2019-05-17T00:47:14.045Z,18.23
2019-05-17T00:49:46.494Z,19.27
2019-05-17T00:52:17.332Z,20.40
2019-05-17T00:54:48.110Z,19.20
2019-05-17T00:57:18.908Z,20.07
2019-05-17T00:59:49.716Z,21.07
2019-05-17T01:02:27.001Z,19.97
2019-05-17T01:05:09.162Z,21.25
2019-05-17T01:07:39.943Z,20.63
2019-05-17T01:10:11.052Z,19.83
2019-05-17T01:12:41.838Z,19.50
2019-05-17T01:15:13.403Z,20.10
2019-05-17T01:17:44.276Z,21.13
2019-05-17T01:20:17.366Z,21.77
2019-05-17T01:22:48.360Z,20.33
2019-05-17T01:25:19.525Z,19.80
2019-05-17T01:27:50.292Z,20.57
2019-05-17T01:30:21.266Z,20.97
2019-05-17T01:32:53.195Z,21.43
2019-05-17T01:35:26.645Z,19.60
2019-05-17T01:37:57.617Z,22.50
2019-05-17T01:40:28.396Z,19.83
2019-05-17T01:42:59.169Z,20.60
2019-05-17T01:45:29.934Z,19.50
2019-05-17T01:48:00.779Z,20.77
2019-05-17T01:50:32.762Z,20.03
2019-05-17T01:53:03.572Z,21.73
2019-05-17T01:55:34.323Z,21.43
2019-05-17T01:58:07.405Z,20.83
2019-05-17T02:00:37.938Z,17.70
2019-05-17T02:03:08.799Z,18.90
2019-05-17T02:05:40.075Z,20.33
2019-05-17T02:08:11.070Z,19.10
2019-05-17T02:10:41.847Z,20.53
2019-05-17T02:13:12.856Z,21.10
2019-05-17T02:15:43.907Z,18.83
2019-05-17T02:18:17.201Z,18.07
2019-05-17T02:20:47.371Z,19.57
2019-05-17T02:23:18.286Z,19.33
2019-05-17T02:25:50.300Z,20.60
2019-05-17T02:28:21.474Z,18.57
2019-05-17T02:30:53.071Z,20.87
2019-05-17T02:33:25.374Z,17.90
2019-05-17T02:35:56.192Z,20.43
2019-05-17T02:38:27.067Z,20.27
2019-05-17T02:40:57.955Z,18.97
2019-05-17T02:43:28.746Z,20.37
2019-05-17T02:45:59.631Z,18.60
2019-05-17T02:48:33.421Z,19.13
2019-05-17T02:51:03.666Z,19.77
2019-05-17T02:53:34.701Z,18.13
2019-05-17T02:56:05.542Z,17.70
2019-05-17T02:58:43.629Z,19.20
2019-05-17T03:01:13.029Z,19.03
2019-05-17T03:03:45.505Z,18.33
2019-05-17T03:06:16.417Z,18.67
2019-05-17T03:08:47.199Z,17.47
2019-05-17T03:11:22.399Z,18.63
2019-05-17T03:13:52.612Z,16.97
2019-05-17T03:16:23.921Z,17.53
2019-05-17T03:18:54.887Z,18.10
2019-05-17T03:21:25.668Z,20.10
2019-05-17T03:23:56.492Z,16.83
2019-05-17T03:26:27.455Z,17.00
2019-05-17T03:28:58.223Z,17.03
2019-05-17T03:31:36.087Z,18.90
2019-05-17T03:34:06.206Z,18.43
2019-05-17T03:36:36.859Z,17.70
2019-05-17T03:39:08.559Z,19.00
2019-05-17T03:41:42.622Z,20.97
2019-05-17T03:44:13.941Z,18.87
2019-05-17T03:46:45.308Z,17.10
2019-05-17T03:49:17.193Z,18.90
2019-05-17T03:51:48.021Z,18.27
2019-05-17T03:54:22.406Z,19.30
2019-05-17T03:56:53.335Z,15.30
2019-05-17T03:59:24.425Z,17.67
2019-05-17T04:01:55.369Z,16.87
2019-05-17T04:04:26.205Z,17.17
2019-05-17T04:06:57.030Z,19.57
2019-05-17T04:09:27.851Z,17.03
2019-05-17T04:11:58.637Z,15.87
2019-05-17T04:14:29.454Z,17.23
2019-05-17T04:17:03.037Z,17.10
2019-05-17T04:19:33.711Z,17.23
2019-05-17T04:22:04.727Z,16.90
2019-05-17T04:24:35.607Z,16.00
2019-05-17T04:27:07.527Z,15.83
2019-05-17T04:29:38.431Z,16.00
2019-05-17T04:32:09.265Z,19.73
2019-05-17T04:34:43.397Z,16.83
2019-05-17T04:37:13.216Z,16.77
2019-05-17T04:39:44.025Z,17.77
2019-05-17T04:42:14.865Z,15.83
2019-05-17T04:44:47.333Z,17.17
2019-05-17T04:47:18.119Z,15.03
2019-05-17T04:49:48.923Z,18.87
2019-05-17T04:52:22.521Z,18.33
2019-05-17T04:54:53.632Z,15.97
2019-05-17T04:57:24.868Z,15.83
2019-05-17T04:59:55.799Z,17.20
2019-05-17T05:02:27.761Z,17.40
2019-05-17T05:04:58.693Z,17.23
2019-05-17T05:07:29.643Z,17.30
2019-05-17T05:10:03.020Z,15.60
2019-05-17T05:12:34.084Z,16.63
2019-05-17T05:15:05.814Z,15.20
2019-05-17T05:17:37.812Z,16.17
2019-05-17T05:20:09.197Z,16.80
2019-05-17T05:22:42.678Z,16.80
2019-05-17T05:25:13.331Z,15.77
2019-05-17T05:27:44.134Z,17.20
2019-05-17T05:30:15.109Z,17.53
2019-05-17T05:32:45.926Z,17.03
2019-05-17T05:35:17.128Z,18.50
2019-05-17T05:37:48.023Z,16.53
2019-05-17T05:40:18.825Z,15.27
2019-05-17T05:42:51.495Z,15.60
2019-05-17T05:45:22.523Z,15.67
2019-05-17T05:47:53.431Z,17.77
2019-05-17T05:50:25.318Z,14.20
2019-05-17T05:52:56.182Z,15.40
2019-05-17T05:55:26.994Z,16.67
2019-05-17T05:57:57.832Z,14.83
2019-05-17T06:00:28.894Z,13.10
2019-05-17T06:02:59.734Z,13.60
2019-05-17T06:05:32.495Z,12.37
2019-05-17T06:08:03.093Z,16.33
2019-05-17T06:10:33.991Z,12.37
2019-05-17T06:13:04.820Z,11.47
2019-05-17T06:15:35.682Z,13.17
2019-05-17T06:18:06.635Z,13.40
2019-05-17T06:20:37.570Z,12.20
2019-05-17T06:23:12.366Z,12.10
2019-05-17T06:25:44.901Z,14.23
2019-05-17T06:28:15.724Z,12.27
2019-05-17T06:30:46.643Z,11.73
2019-05-17T06:33:29.914Z,11.63
2019-05-17T06:35:52.633Z,11.13
2019-05-17T06:38:23.665Z,13.97
2019-05-17T06:40:54.420Z,12.40
2019-05-17T06:43:25.433Z,10.63
2019-05-17T06:45:58.082Z,11.43
2019-05-17T06:48:28.887Z,10.27
2019-05-17T06:51:02.276Z,12.20
2019-05-17T06:53:32.518Z,10.03
2019-05-17T06:56:03.512Z,10.63
2019-05-17T06:58:34.391Z,13.50
2019-05-17T07:01:06.387Z,8.97
2019-05-17T07:03:37.165Z,10.53
2019-05-17T07:06:10.941Z,10.93
2019-05-17T07:08:41.858Z,11.67
2019-05-17T07:11:12.901Z,9.97
2019-05-17T07:13:43.784Z,9.60
2019-05-17T07:16:14.581Z,9.40
2019-05-17T07:18:45.356Z,9.03
2019-05-17T07:21:16.318Z,9.67
2019-05-17T07:23:47.200Z,9.23
2019-05-17T07:26:19.728Z,8.60
2019-05-17T07:28:50.768Z,8.50
2019-05-17T07:31:23.214Z,8.97
2019-05-17T07:33:54.272Z,9.53
2019-05-17T07:36:25.244Z,7.67
2019-05-17T07:38:56.162Z,10.00
2019-05-17T07:41:27.034Z,8.27
2019-05-17T07:44:00.413Z,9.27
2019-05-17T07:46:32.425Z,7.30
2019-05-17T07:49:05.088Z,8.17
2019-05-17T07:51:35.982Z,7.17
2019-05-17T07:54:10.277Z,8.07
2019-05-17T07:56:40.524Z,8.90
2019-05-17T07:59:11.390Z,8.27
2019-05-17T08:01:42.317Z,7.83
2019-05-17T08:04:14.824Z,6.63
2019-05-17T08:06:45.603Z,7.10
2019-05-17T08:09:16.559Z,5.73
2019-05-17T08:11:47.482Z,6.37
2019-05-17T08:14:27.545Z,7.27
2019-05-17T08:16:50.906Z,4.97
2019-05-17T08:19:21.703Z,5.73
2019-05-17T08:21:52.515Z,6.30
2019-05-17T08:24:23.351Z,7.57
2019-05-17T08:26:54.307Z,5.40
2019-05-17T08:29:25.087Z,4.77
2019-05-17T08:31:55.946Z,6.30
2019-05-17T08:34:29.203Z,4.90
2019-05-17T08:37:01.095Z,5.57
2019-05-17T08:39:33.314Z,5.93
2019-05-17T08:42:04.133Z,6.50
2019-05-17T08:44:36.071Z,5.77
2019-05-17T08:47:07.230Z,5.37
2019-05-17T08:49:40.261Z,5.87
2019-05-17T08:52:10.699Z,6.20
2019-05-17T08:54:42.898Z,9.67
2019-05-17T08:57:13.859Z,6.60
2019-05-17T08:59:44.657Z,6.53
2019-05-17T09:02:16.975Z,6.43
2019-05-17T09:04:49.763Z,8.03
2019-05-17T09:07:20.544Z,5.40
2019-05-17T09:09:52.697Z,6.97
2019-05-17T09:12:23.495Z,6.23
2019-05-17T09:14:54.370Z,7.50
2019-05-17T09:17:26.580Z,8.67
2019-05-17T09:19:57.594Z,8.73
2019-05-17T09:22:30.416Z,7.20
2019-05-17T09:25:00.945Z,6.93
2019-05-17T09:27:31.870Z,7.03
2019-05-17T09:30:03.780Z,7.97
2019-05-17T09:32:34.693Z,6.87
2019-05-17T09:35:06.385Z,7.73
2019-05-17T09:37:37.260Z,7.60
2019-05-17T09:40:09.398Z,7.10
2019-05-17T09:42:41.542Z,6.83
2019-05-17T09:45:12.905Z,7.30
2019-05-17T09:47:43.721Z,6.93
2019-05-17T09:50:14.977Z,7.97
2019-05-17T09:52:45.986Z,8.17
2019-05-17T09:55:19.630Z,7.07
2019-05-17T09:57:50.667Z,6.33
2019-05-17T10:00:21.620Z,7.57
2019-05-17T10:02:52.405Z,6.37
2019-05-17T10:05:23.461Z,6.47
2019-05-17T10:07:56.087Z,5.73
2019-05-17T10:10:27.051Z,6.37
2019-05-17T10:13:00.123Z,6.77
2019-05-17T10:15:30.576Z,5.77
2019-05-17T10:18:01.506Z,5.60
2019-05-17T10:20:32.480Z,7.00
2019-05-17T10:23:03.330Z,7.40
2019-05-17T10:25:34.980Z,6.90
2019-05-17T10:28:06.031Z,7.83
2019-05-17T10:30:39.531Z,6.20
2019-05-17T10:33:10.065Z,8.83
2019-05-17T10:35:41.127Z,6.17
2019-05-17T10:38:13.045Z,6.07
2019-05-17T10:40:43.943Z,6.93
2019-05-17T10:43:14.755Z,8.30
2019-05-17T10:45:45.680Z,7.83
2019-05-17T10:48:16.562Z,9.57
2019-05-17T10:50:49.508Z,7.03
2019-05-17T10:53:20.472Z,8.50
2019-05-17T10:55:51.728Z,7.57
2019-05-17T10:58:22.582Z,7.57
2019-05-17T11:00:53.558Z,8.20
2019-05-17T11:03:24.398Z,7.10
2019-05-17T11:05:55.233Z,8.40
2019-05-17T11:08:26.106Z,9.00
2019-05-17T11:10:59.430Z,6.70
2019-05-17T11:13:29.479Z,6.50
2019-05-17T11:16:00.359Z,8.93
2019-05-17T11:18:31.191Z,8.83
2019-05-17T11:21:02.060Z,6.37
2019-05-17T11:23:33.149Z,8.20
2019-05-17T11:26:04.041Z,7.63
2019-05-17T11:28:35.059Z,6.27
2019-05-17T11:31:06.099Z,7.30
2019-05-17T11:33:36.887Z,7.43
2019-05-17T11:36:07.886Z,7.90
2019-05-17T11:38:38.964Z,6.87
2019-05-17T11:41:20.469Z,7.00
2019-05-17T11:43:42.519Z,7.20
2019-05-17T11:46:13.393Z,7.80
2019-05-17T11:48:45.665Z,7.23
2019-05-17T11:51:17.819Z,6.43
2019-05-17T11:53:49.797Z,7.37
2019-05-17T11:56:20.666Z,7.10
2019-05-17T11:58:51.550Z,6.57
2019-05-17T12:01:22.499Z,7.33
2019-05-17T12:03:53.340Z,9.73
2019-05-17T12:06:24.594Z,7.83
2019-05-17T12:08:55.596Z,7.37
2019-05-17T12:11:26.540Z,7.10
2019-05-17T12:13:57.277Z,6.53
2019-05-17T12:16:28.047Z,5.23
2019-05-17T12:18:58.966Z,6.20
2019-05-17T12:21:29.921Z,7.80
2019-05-17T12:24:00.803Z,7.43
2019-05-17T12:26:31.628Z,6.33
2019-05-17T12:29:02.623Z,6.07
2019-05-17T12:31:33.720Z,6.67
2019-05-17T12:34:04.811Z,7.22
2019-05-17T12:36:35.755Z,6.37
2019-05-17T12:39:07.758Z,6.62
2019-05-17T12:41:38.661Z,4.90
2019-05-17T12:44:09.586Z,8.05
2019-05-17T12:46:40.520Z,5.90
2019-05-17T12:49:11.472Z,6.87
2019-05-17T12:51:42.335Z,6.10
2019-05-17T12:54:13.144Z,5.40
2019-05-17T12:56:43.976Z,5.75
2019-05-17T12:59:14.811Z,6.40
2019-05-17T13:01:45.739Z,7.20
2019-05-17T13:04:16.663Z,6.78
2019-05-17T13:06:47.609Z,7.70
2019-05-17T13:09:18.601Z,7.43
2019-05-17T13:11:49.579Z,7.65
2019-05-17T13:14:20.597Z,7.83
2019-05-17T13:16:51.583Z,9.00
2019-05-17T13:19:25.407Z,9.67
2019-05-17T13:21:56.043Z,6.60
2019-05-17T13:24:26.971Z,8.83
2019-05-17T13:26:57.897Z,6.93
2019-05-17T13:29:28.903Z,7.13
2019-05-17T13:31:59.777Z,6.03
2019-05-17T13:34:30.768Z,7.77
2019-05-17T13:37:02.555Z,7.80
2019-05-17T13:39:34.518Z,7.42
2019-05-17T13:42:05.505Z,8.10
2019-05-17T13:44:36.462Z,7.70
2019-05-17T13:47:07.446Z,6.63
2019-05-17T13:49:38.493Z,6.87
2019-05-17T13:52:09.540Z,7.63
2019-05-17T13:54:40.604Z,6.80
2019-05-17T13:57:11.636Z,11.03
2019-05-17T13:59:42.678Z,6.10
2019-05-17T14:02:13.608Z,5.80
2019-05-17T14:08:45.296Z,7.20
2019-05-17T14:11:16.181Z,5.57
2019-05-17T14:13:47.087Z,5.97
2019-05-17T14:16:18.074Z,4.70
2019-05-17T14:18:50.408Z,4.57
2019-05-17T14:21:21.379Z,6.30
2019-05-17T14:23:52.186Z,6.10
2019-05-17T14:26:25.071Z,5.57
2019-05-17T14:28:56.152Z,4.93
2019-05-17T14:31:27.091Z,5.13
2019-05-17T14:33:58.045Z,5.73
2019-05-17T14:36:28.973Z,4.70
2019-05-17T14:39:00.050Z,5.83
2019-05-17T14:41:31.070Z,4.37
2019-05-17T14:44:03.008Z,4.50
2019-05-17T14:46:34.984Z,3.90
2019-05-17T14:49:08.651Z,5.33
2019-05-17T14:51:39.505Z,3.63
2019-05-17T14:54:10.388Z,4.83
2019-05-17T14:56:41.236Z,5.00
2019-05-17T14:59:12.200Z,6.57
2019-05-17T15:01:43.247Z,3.53
2019-05-17T15:04:14.148Z,3.53
2019-05-17T15:06:45.164Z,3.80
2019-05-17T15:09:17.549Z,5.10
2019-05-17T15:11:49.915Z,3.43
2019-05-17T15:14:21.859Z,3.40
2019-05-17T15:16:52.679Z,3.80
2019-05-17T15:19:23.671Z,3.50
2019-05-17T15:21:54.942Z,4.87
2019-05-17T15:24:25.899Z,4.83
2019-05-17T15:27:05.353Z,3.80
2019-05-17T15:29:29.662Z,3.57
2019-05-17T15:32:00.537Z,3.37
2019-05-17T15:34:31.585Z,4.37
2019-05-17T15:37:03.450Z,3.67
2019-05-17T15:39:34.482Z,3.23
2019-05-17T15:42:06.408Z,3.70
2019-05-17T15:44:37.369Z,3.53
2019-05-17T15:47:08.396Z,3.37
2019-05-17T15:49:39.352Z,3.77
2019-05-17T15:52:10.546Z,3.50
2019-05-17T15:54:41.465Z,4.13
2019-05-17T15:57:12.427Z,3.57
2019-05-17T15:59:43.619Z,3.70
2019-05-17T16:02:14.651Z,4.10
2019-05-17T16:04:45.744Z,4.60
2019-05-17T16:07:16.743Z,3.40
2019-05-17T16:09:47.930Z,3.77
2019-05-17T16:12:19.019Z,4.53
2019-05-17T16:14:50.089Z,5.07
2019-05-17T16:17:21.350Z,4.00
2019-05-17T16:19:52.406Z,4.83
2019-05-17T16:22:23.581Z,4.97
2019-05-17T16:24:54.527Z,4.37
2019-05-17T16:27:25.443Z,5.50
2019-05-17T16:29:56.531Z,6.50
2019-05-17T16:32:27.426Z,6.23
2019-05-17T16:34:58.374Z,5.07
2019-05-17T16:37:29.350Z,5.03
2019-05-17T16:40:00.135Z,5.13
2019-05-17T16:42:30.960Z,3.87
2019-05-17T16:45:01.737Z,4.30
2019-05-17T16:47:36.972Z,4.57
2019-05-17T16:50:09.623Z,4.20
2019-05-17T16:52:40.542Z,3.57
2019-05-17T16:55:11.509Z,4.85
2019-05-17T16:57:42.447Z,3.00
2019-05-17T17:00:27.893Z,5.33
2019-05-17T17:02:59.006Z,5.37
2019-05-17T17:05:29.886Z,5.03
2019-05-17T17:08:00.828Z,6.13
2019-05-17T17:10:32.841Z,9.53
2019-05-17T17:13:03.648Z,4.33
2019-05-17T17:15:34.879Z,4.40
2019-05-17T17:18:11.390Z,5.43
2019-05-17T17:20:42.303Z,3.57
2019-05-17T17:23:13.676Z,3.63
2019-05-17T17:25:46.054Z,5.23
2019-05-17T17:28:16.897Z,4.07
2019-05-17T17:30:47.812Z,5.50
2019-05-17T17:33:18.732Z,4.07
2019-05-17T17:35:55.526Z,3.60
2019-05-17T17:38:26.665Z,3.50
2019-05-17T17:40:57.985Z,3.07
2019-05-17T17:43:29.082Z,3.57
2019-05-17T17:46:00.168Z,4.67
2019-05-17T17:48:31.026Z,5.33
2019-05-17T17:51:01.882Z,3.73
2019-05-17T17:53:32.834Z,4.20
2019-05-17T17:56:03.703Z,5.77
2019-05-17T17:58:34.612Z,4.63
2019-05-17T18:01:05.589Z,5.00
2019-05-17T18:03:36.475Z,8.10
2019-05-17T18:06:09.111Z,6.13
2019-05-17T18:08:40.114Z,4.90
2019-05-17T18:11:11.071Z,5.63
2019-05-17T18:13:42.146Z,5.33
2019-05-17T18:16:13.057Z,6.07
2019-05-17T18:18:43.974Z,5.60
2019-05-17T18:21:16.605Z,6.53
2019-05-17T18:23:47.520Z,9.53
2019-05-17T18:26:18.570Z,8.03
2019-05-17T18:37:40.309Z,7.57
2019-05-17T18:40:11.442Z,10.53
2019-05-17T18:42:42.378Z,12.23
2019-05-17T18:45:13.444Z,9.40
2019-05-17T18:47:44.559Z,10.67
2019-05-17T18:50:16.218Z,9.83
2019-05-17T18:52:47.211Z,10.07
2019-05-17T18:55:18.151Z,10.17
2019-05-17T18:57:48.986Z,10.03
2019-05-17T19:00:20.253Z,8.67
2019-05-17T19:02:51.329Z,9.13
2019-05-17T19:05:22.230Z,10.53
2019-05-17T19:07:54.140Z,9.67
2019-05-17T19:10:24.995Z,10.03
2019-05-17T19:12:56.036Z,9.60
2019-05-17T19:15:27.144Z,10.97
2019-05-17T19:17:57.977Z,9.40
2019-05-17T19:20:28.889Z,9.50
2019-05-17T19:22:59.871Z,8.47
2019-05-17T19:25:30.859Z,11.30
2019-05-17T19:28:01.891Z,8.37
2019-05-17T19:30:32.820Z,9.00
2019-05-17T19:33:03.950Z,8.70
2019-05-17T19:35:34.871Z,10.23
2019-05-17T19:38:06.013Z,8.93
2019-05-17T19:40:36.921Z,11.37
2019-05-17T19:43:07.944Z,9.07
2019-05-17T19:45:42.275Z,10.70
2019-05-17T19:48:13.327Z,9.77
2019-05-17T19:50:44.357Z,9.23
2019-05-17T19:53:15.685Z,10.80
2019-05-17T19:55:46.791Z,9.00
2019-05-17T19:58:17.855Z,9.10
2019-05-17T20:00:48.765Z,10.23
2019-05-17T20:03:20.055Z,9.43
2019-05-17T20:05:51.333Z,7.83
2019-05-17T20:08:23.963Z,8.30
2019-05-17T20:10:54.850Z,9.77
2019-05-17T20:13:26.155Z,9.17
2019-05-17T20:15:58.094Z,9.50
2019-05-17T20:18:35.822Z,8.60
2019-05-17T20:21:06.727Z,8.47
2019-05-17T20:23:37.722Z,8.13
2019-05-17T20:26:08.608Z,8.70
2019-05-17T20:28:39.711Z,8.70
2019-05-17T20:31:10.689Z,8.33
2019-05-17T20:33:41.729Z,9.07
2019-05-17T20:36:12.766Z,12.20
2019-05-17T20:38:43.671Z,8.17
2019-05-17T20:41:19.528Z,8.07
2019-05-17T20:43:50.441Z,8.83
2019-05-17T20:46:21.559Z,10.23
2019-05-17T20:48:52.456Z,9.00
2019-05-17T20:51:23.365Z,7.73
2019-05-17T20:53:54.227Z,8.67
2019-05-17T20:56:32.950Z,7.60
2019-05-17T20:58:57.590Z,9.87
2019-05-17T21:01:28.610Z,12.37
2019-05-17T21:03:59.456Z,11.93
2019-05-17T21:06:30.384Z,10.83
2019-05-17T21:09:01.175Z,11.03
2019-05-17T21:11:33.712Z,10.30
2019-05-17T21:14:04.616Z,9.97
2019-05-17T21:16:35.524Z,10.17
2019-05-17T21:19:06.315Z,10.80
2019-05-17T21:21:37.369Z,9.97
2019-05-17T21:24:09.393Z,9.87
2019-05-17T21:26:40.304Z,9.27
2019-05-17T21:29:11.363Z,10.90
2019-05-17T21:31:43.054Z,10.07
2019-05-17T21:34:14.045Z,9.77
2019-05-17T21:36:44.905Z,10.23
2019-05-17T21:39:15.733Z,11.17
2019-05-17T21:41:46.772Z,9.03
2019-05-17T21:44:17.765Z,9.57
2019-05-17T21:47:02.416Z,13.20
2019-05-17T21:49:21.314Z,11.43
2019-05-17T21:51:52.465Z,10.30
2019-05-17T21:54:23.311Z,10.07
2019-05-17T21:56:54.153Z,13.50
2019-05-17T21:59:25.267Z,10.23
2019-05-17T22:01:57.543Z,10.07
2019-05-17T22:04:28.798Z,11.13
2019-05-17T22:07:00.774Z,11.50
2019-05-17T22:09:33.009Z,10.03
2019-05-17T22:12:07.874Z,12.97
2019-05-17T22:14:38.851Z,11.13
2019-05-17T22:17:09.875Z,12.50
2019-05-17T22:19:40.776Z,10.87
2019-05-17T22:22:11.611Z,11.87
2019-05-17T22:24:42.536Z,12.97
2019-05-17T22:27:16.480Z,9.67
2019-05-17T22:29:47.270Z,10.53
2019-05-17T22:32:18.185Z,11.30
2019-05-17T22:34:50.207Z,12.20
2019-05-17T22:37:21.233Z,12.07
2019-05-17T22:39:51.994Z,12.87
2019-05-17T22:42:23.048Z,12.53
2019-05-17T22:44:54.014Z,14.47
2019-05-17T22:47:24.927Z,11.60
2019-05-17T22:49:55.922Z,13.93
2019-05-17T22:52:26.860Z,14.10
2019-05-17T22:54:57.695Z,12.70
2019-05-17T22:57:29.660Z,10.77
2019-05-17T23:00:00.580Z,11.17
2019-05-17T23:02:31.502Z,11.20
2019-05-17T23:05:02.408Z,12.30
2019-05-17T23:07:33.505Z,12.80
2019-05-17T23:10:07.487Z,16.63
2019-05-17T23:12:38.444Z,14.77
2019-05-17T23:15:09.595Z,13.77
2019-05-17T23:17:40.552Z,12.23
2019-05-17T23:20:11.539Z,11.53
2019-05-17T23:22:43.105Z,13.83
2019-05-17T23:25:13.967Z,11.80
2019-05-17T23:27:44.846Z,12.57
2019-05-17T23:33:15.386Z,14.23
2019-05-17T23:35:47.565Z,11.70
2019-05-17T23:38:18.500Z,11.93
2019-05-17T23:40:51.116Z,13.60
2019-05-17T23:43:22.059Z,11.10
2019-05-17T23:45:53.957Z,13.10
2019-05-17T23:48:24.749Z,12.13
2019-05-17T23:50:57.318Z,19.13
2019-05-17T23:53:29.420Z,15.20
2019-05-17T23:56:00.357Z,14.47
2019-05-17T23:58:31.191Z,12.67
